sensor_id;sensor_type;location;lat;lon;timestamp;temperature;humidity
15455;DHT22;21057;51.024;7.540;2023-04-24T00:00:35;12.20;99.90
15455;DHT22;21057;51.024;7.540;2023-04-24T00:03:03;12.20;99.90
15455;DHT22;21057;51.024;7.540;2023-04-24T00:05:48;12.20;99.90
15455;DHT22;21057;51.024;7.540;2023-04-24T00:08:15;12.20;99.90
15455;DHT22;21057;51.024;7.540;2023-04-24T00:10:43;12.20;99.90
15455;DHT22;21057;51.024;7.540;2023-04-24T00:13:11;12.10;99.90
15455;DHT22;21057;51.024;7.540;2023-04-24T00:15:38;12.20;99.90
15455;DHT22;21057;51.024;7.540;2023-04-24T00:18:05;12.20;99.90
15455;DHT22;21057;51.024;7.540;2023-04-24T00:20:32;12.10;99.90
15455;DHT22;21057;51.024;7.540;2023-04-24T00:23:00;12.20;99.90
15455;DHT22;21057;51.024;7.540;2023-04-24T00:25:27;12.10;99.90
15455;DHT22;21057;51.024;7.540;2023-04-24T00:27:56;12.10;99.90
15455;DHT22;21057;51.024;7.540;2023-04-24T00:30:23;12.10;99.90
15455;DHT22;21057;51.024;7.540;2023-04-24T00:32:50;12.10;99.90
15455;DHT22;21057;51.024;7.540;2023-04-24T00:35:17;12.10;99.90
15455;DHT22;21057;51.024;7.540;2023-04-24T00:37:45;12.10;99.90
15455;DHT22;21057;51.024;7.540;2023-04-24T00:40:12;12.20;99.90
15455;DHT22;21057;51.024;7.540;2023-04-24T00:42:40;12.10;99.90
15455;DHT22;21057;51.024;7.540;2023-04-24T00:45:09;11.90;99.90
15455;DHT22;21057;51.024;7.540;2023-04-24T00:47:36;12.00;99.90
15455;DHT22;21057;51.024;7.540;2023-04-24T00:50:05;12.00;99.90
15455;DHT22;21057;51.024;7.540;2023-04-24T00:52:33;12.10;99.90
15455;DHT22;21057;51.024;7.540;2023-04-24T00:55:00;12.10;99.90
15455;DHT22;21057;51.024;7.540;2023-04-24T00:57:27;12.20;99.90
15455;DHT22;21057;51.024;7.540;2023-04-24T00:59:54;12.10;99.90
15455;DHT22;21057;51.024;7.540;2023-04-24T01:02:23;12.10;99.90
15455;DHT22;21057;51.024;7.540;2023-04-24T01:04:51;12.20;99.90
15455;DHT22;21057;51.024;7.540;2023-04-24T01:07:19;12.30;99.90
15455;DHT22;21057;51.024;7.540;2023-04-24T01:09:48;12.20;99.90
15455;DHT22;21057;51.024;7.540;2023-04-24T01:12:17;12.20;99.90
15455;DHT22;21057;51.024;7.540;2023-04-24T01:14:44;12.20;99.90
15455;DHT22;21057;51.024;7.540;2023-04-24T01:17:11;12.20;99.90
15455;DHT22;21057;51.024;7.540;2023-04-24T01:19:39;12.20;99.90
15455;DHT22;21057;51.024;7.540;2023-04-24T01:22:12;12.30;99.90
15455;DHT22;21057;51.024;7.540;2023-04-24T01:24:39;12.30;99.90
15455;DHT22;21057;51.024;7.540;2023-04-24T01:27:07;12.20;99.90
15455;DHT22;21057;51.024;7.540;2023-04-24T01:29:34;12.20;99.90
15455;DHT22;21057;51.024;7.540;2023-04-24T01:32:02;12.20;99.90
15455;DHT22;21057;51.024;7.540;2023-04-24T01:34:29;12.20;99.90
15455;DHT22;21057;51.024;7.540;2023-04-24T01:36:57;12.20;99.90
15455;DHT22;21057;51.024;7.540;2023-04-24T01:39:26;12.20;99.90
15455;DHT22;21057;51.024;7.540;2023-04-24T01:41:54;12.10;99.90
15455;DHT22;21057;51.024;7.540;2023-04-24T01:44:32;12.00;99.90
15455;DHT22;21057;51.024;7.540;2023-04-24T01:47:00;12.00;99.90
15455;DHT22;21057;51.024;7.540;2023-04-24T01:49:27;11.90;99.90
15455;DHT22;21057;51.024;7.540;2023-04-24T01:51:54;11.80;99.90
15455;DHT22;21057;51.024;7.540;2023-04-24T01:54:38;11.90;99.90
15455;DHT22;21057;51.024;7.540;2023-04-24T01:57:05;11.90;99.90
15455;DHT22;21057;51.024;7.540;2023-04-24T01:59:33;12.00;99.90
15455;DHT22;21057;51.024;7.540;2023-04-24T02:02:02;12.00;99.90
15455;DHT22;21057;51.024;7.540;2023-04-24T02:04:29;12.00;99.90
15455;DHT22;21057;51.024;7.540;2023-04-24T02:06:55;12.00;99.90
15455;DHT22;21057;51.024;7.540;2023-04-24T02:09:38;12.00;99.90
15455;DHT22;21057;51.024;7.540;2023-04-24T02:12:05;11.70;99.90
15455;DHT22;21057;51.024;7.540;2023-04-24T02:14:38;11.50;99.90
15455;DHT22;21057;51.024;7.540;2023-04-24T02:17:06;11.20;99.90
15455;DHT22;21057;51.024;7.540;2023-04-24T02:19:34;10.70;99.90
15455;DHT22;21057;51.024;7.540;2023-04-24T02:22:00;10.70;99.90
15455;DHT22;21057;51.024;7.540;2023-04-24T02:24:27;10.80;99.90
15455;DHT22;21057;51.024;7.540;2023-04-24T02:26:55;10.80;99.90
15455;DHT22;21057;51.024;7.540;2023-04-24T02:29:36;10.90;99.90
15455;DHT22;21057;51.024;7.540;2023-04-24T02:32:03;10.90;99.90
15455;DHT22;21057;51.024;7.540;2023-04-24T02:34:38;11.00;99.90
15455;DHT22;21057;51.024;7.540;2023-04-24T02:37:05;11.10;99.90
15455;DHT22;21057;51.024;7.540;2023-04-24T02:39:37;11.00;99.90
15455;DHT22;21057;51.024;7.540;2023-04-24T02:42:06;11.10;99.90
15455;DHT22;21057;51.024;7.540;2023-04-24T02:44:42;11.20;99.90
15455;DHT22;21057;51.024;7.540;2023-04-24T02:47:09;11.10;99.90
15455;DHT22;21057;51.024;7.540;2023-04-24T02:49:36;11.10;99.90
15455;DHT22;21057;51.024;7.540;2023-04-24T02:52:02;11.10;99.90
15455;DHT22;21057;51.024;7.540;2023-04-24T02:54:29;11.10;99.90
15455;DHT22;21057;51.024;7.540;2023-04-24T02:56:56;11.10;99.90
15455;DHT22;21057;51.024;7.540;2023-04-24T02:59:24;11.10;99.90
15455;DHT22;21057;51.024;7.540;2023-04-24T03:02:06;11.00;99.90
15455;DHT22;21057;51.024;7.540;2023-04-24T03:04:33;11.00;99.90
15455;DHT22;21057;51.024;7.540;2023-04-24T03:07:03;11.00;99.90
15455;DHT22;21057;51.024;7.540;2023-04-24T03:09:31;10.90;99.90
15455;DHT22;21057;51.024;7.540;2023-04-24T03:11:58;10.80;99.90
15455;DHT22;21057;51.024;7.540;2023-04-24T03:14:26;10.60;99.90
15455;DHT22;21057;51.024;7.540;2023-04-24T03:16:53;10.40;99.90
15455;DHT22;21057;51.024;7.540;2023-04-24T03:19:19;10.30;99.90
15455;DHT22;21057;51.024;7.540;2023-04-24T03:21:54;10.40;99.90
15455;DHT22;21057;51.024;7.540;2023-04-24T03:24:21;10.40;99.90
15455;DHT22;21057;51.024;7.540;2023-04-24T03:26:48;10.40;99.90
15455;DHT22;21057;51.024;7.540;2023-04-24T03:29:15;10.30;99.90
15455;DHT22;21057;51.024;7.540;2023-04-24T03:31:48;10.10;99.90
15455;DHT22;21057;51.024;7.540;2023-04-24T03:34:14;10.10;99.90
15455;DHT22;21057;51.024;7.540;2023-04-24T03:36:41;10.30;99.90
15455;DHT22;21057;51.024;7.540;2023-04-24T03:39:08;10.20;99.90
15455;DHT22;21057;51.024;7.540;2023-04-24T03:41:52;10.30;99.90
15455;DHT22;21057;51.024;7.540;2023-04-24T03:44:19;10.30;99.90
15455;DHT22;21057;51.024;7.540;2023-04-24T03:46:47;10.40;99.90
15455;DHT22;21057;51.024;7.540;2023-04-24T03:49:14;10.30;99.90
15455;DHT22;21057;51.024;7.540;2023-04-24T03:51:53;10.30;99.90
15455;DHT22;21057;51.024;7.540;2023-04-24T03:54:20;10.20;99.90
15455;DHT22;21057;51.024;7.540;2023-04-24T03:56:48;10.20;99.90
15455;DHT22;21057;51.024;7.540;2023-04-24T03:59:14;10.30;99.90
15455;DHT22;21057;51.024;7.540;2023-04-24T04:01:43;10.10;99.90
15455;DHT22;21057;51.024;7.540;2023-04-24T04:04:12;9.80;99.90
15455;DHT22;21057;51.024;7.540;2023-04-24T04:06:39;9.90;99.90
15455;DHT22;21057;51.024;7.540;2023-04-24T04:09:05;10.00;99.90
15455;DHT22;21057;51.024;7.540;2023-04-24T04:11:33;10.10;99.90
15455;DHT22;21057;51.024;7.540;2023-04-24T04:14:00;9.90;99.90
15455;DHT22;21057;51.024;7.540;2023-04-24T04:16:27;9.80;99.90
15455;DHT22;21057;51.024;7.540;2023-04-24T04:18:54;9.90;99.90
15455;DHT22;21057;51.024;7.540;2023-04-24T04:21:35;10.00;99.90
15455;DHT22;21057;51.024;7.540;2023-04-24T04:24:02;10.10;99.90
15455;DHT22;21057;51.024;7.540;2023-04-24T04:26:31;10.10;99.90
15455;DHT22;21057;51.024;7.540;2023-04-24T04:28:59;10.10;99.90
15455;DHT22;21057;51.024;7.540;2023-04-24T04:31:27;10.20;99.90
15455;DHT22;21057;51.024;7.540;2023-04-24T04:33:54;10.30;99.90
15455;DHT22;21057;51.024;7.540;2023-04-24T04:36:21;10.10;99.90
15455;DHT22;21057;51.024;7.540;2023-04-24T04:38:58;10.10;99.90
15455;DHT22;21057;51.024;7.540;2023-04-24T04:41:25;10.00;99.90
15455;DHT22;21057;51.024;7.540;2023-04-24T04:43:52;10.00;99.90
15455;DHT22;21057;51.024;7.540;2023-04-24T04:46:19;10.00;99.90
15455;DHT22;21057;51.024;7.540;2023-04-24T04:48:47;10.00;99.90
15455;DHT22;21057;51.024;7.540;2023-04-24T04:51:14;10.00;99.90
15455;DHT22;21057;51.024;7.540;2023-04-24T04:53:41;10.10;99.90
15455;DHT22;21057;51.024;7.540;2023-04-24T04:56:09;10.10;99.90
15455;DHT22;21057;51.024;7.540;2023-04-24T04:58:41;10.10;99.90
15455;DHT22;21057;51.024;7.540;2023-04-24T05:01:08;10.20;99.90
15455;DHT22;21057;51.024;7.540;2023-04-24T05:03:42;10.20;99.90
15455;DHT22;21057;51.024;7.540;2023-04-24T05:06:09;10.20;99.90
15455;DHT22;21057;51.024;7.540;2023-04-24T05:08:58;10.20;99.90
15455;DHT22;21057;51.024;7.540;2023-04-24T05:11:26;10.20;99.90
15455;DHT22;21057;51.024;7.540;2023-04-24T05:13:52;10.30;99.90
15455;DHT22;21057;51.024;7.540;2023-04-24T05:16:21;10.30;99.90
15455;DHT22;21057;51.024;7.540;2023-04-24T05:18:49;10.40;99.90
15455;DHT22;21057;51.024;7.540;2023-04-24T05:21:16;10.30;99.90
15455;DHT22;21057;51.024;7.540;2023-04-24T05:23:53;10.30;99.90
15455;DHT22;21057;51.024;7.540;2023-04-24T05:26:20;10.30;99.90
15455;DHT22;21057;51.024;7.540;2023-04-24T05:28:49;10.30;99.90
15455;DHT22;21057;51.024;7.540;2023-04-24T05:31:16;10.10;99.90
15455;DHT22;21057;51.024;7.540;2023-04-24T05:33:43;10.00;99.90
15455;DHT22;21057;51.024;7.540;2023-04-24T05:36:10;10.10;99.90
15455;DHT22;21057;51.024;7.540;2023-04-24T05:38:37;10.10;99.90
15455;DHT22;21057;51.024;7.540;2023-04-24T05:41:04;10.10;99.90
15455;DHT22;21057;51.024;7.540;2023-04-24T05:43:32;10.10;99.90
15455;DHT22;21057;51.024;7.540;2023-04-24T05:46:00;10.20;99.90
15455;DHT22;21057;51.024;7.540;2023-04-24T05:48:33;10.10;99.90
15455;DHT22;21057;51.024;7.540;2023-04-24T05:51:00;10.10;99.90
15455;DHT22;21057;51.024;7.540;2023-04-24T05:53:28;10.20;99.90
15455;DHT22;21057;51.024;7.540;2023-04-24T05:55:54;10.30;99.90
15455;DHT22;21057;51.024;7.540;2023-04-24T05:58:38;10.30;99.90
15455;DHT22;21057;51.024;7.540;2023-04-24T06:01:06;10.30;99.90
15455;DHT22;21057;51.024;7.540;2023-04-24T06:03:33;10.20;99.90
15455;DHT22;21057;51.024;7.540;2023-04-24T06:06:02;10.20;99.90
15455;DHT22;21057;51.024;7.540;2023-04-24T06:08:29;10.20;99.90
15455;DHT22;21057;51.024;7.540;2023-04-24T06:11:09;10.30;99.90
15455;DHT22;21057;51.024;7.540;2023-04-24T06:13:36;10.40;99.90
15455;DHT22;21057;51.024;7.540;2023-04-24T06:16:03;10.50;99.90
15455;DHT22;21057;51.024;7.540;2023-04-24T06:18:31;10.60;99.90
15455;DHT22;21057;51.024;7.540;2023-04-24T06:21:04;10.40;99.90
15455;DHT22;21057;51.024;7.540;2023-04-24T06:23:31;10.40;99.90
15455;DHT22;21057;51.024;7.540;2023-04-24T06:25:58;10.40;99.90
15455;DHT22;21057;51.024;7.540;2023-04-24T06:28:25;10.20;99.90
15455;DHT22;21057;51.024;7.540;2023-04-24T06:30:52;10.20;99.90
15455;DHT22;21057;51.024;7.540;2023-04-24T06:33:19;10.40;99.90
15455;DHT22;21057;51.024;7.540;2023-04-24T06:35:47;10.30;99.90
15455;DHT22;21057;51.024;7.540;2023-04-24T06:38:14;10.40;99.90
15455;DHT22;21057;51.024;7.540;2023-04-24T06:40:41;10.40;99.90
15455;DHT22;21057;51.024;7.540;2023-04-24T06:43:08;10.40;99.90
15455;DHT22;21057;51.024;7.540;2023-04-24T06:45:36;10.30;99.90
15455;DHT22;21057;51.024;7.540;2023-04-24T06:48:04;10.10;99.90
15455;DHT22;21057;51.024;7.540;2023-04-24T06:50:33;10.30;99.90
15455;DHT22;21057;51.024;7.540;2023-04-24T06:53:02;10.30;99.90
15455;DHT22;21057;51.024;7.540;2023-04-24T06:55:28;10.20;99.90
15455;DHT22;21057;51.024;7.540;2023-04-24T06:57:56;10.30;99.90
15455;DHT22;21057;51.024;7.540;2023-04-24T07:00:23;10.40;99.90
15455;DHT22;21057;51.024;7.540;2023-04-24T07:02:50;10.40;99.90
15455;DHT22;21057;51.024;7.540;2023-04-24T07:05:17;10.50;99.90
15455;DHT22;21057;51.024;7.540;2023-04-24T07:07:46;10.60;99.90
15455;DHT22;21057;51.024;7.540;2023-04-24T07:10:14;10.60;99.90
15455;DHT22;21057;51.024;7.540;2023-04-24T07:12:41;10.40;99.90
15455;DHT22;21057;51.024;7.540;2023-04-24T07:15:14;10.30;99.90
15455;DHT22;21057;51.024;7.540;2023-04-24T07:17:41;10.00;99.90
15455;DHT22;21057;51.024;7.540;2023-04-24T07:20:10;9.90;99.90
15455;DHT22;21057;51.024;7.540;2023-04-24T07:22:44;9.90;99.90
15455;DHT22;21057;51.024;7.540;2023-04-24T07:25:10;10.00;99.90
15455;DHT22;21057;51.024;7.540;2023-04-24T07:27:49;9.80;99.90
15455;DHT22;21057;51.024;7.540;2023-04-24T07:30:16;9.70;99.90
15455;DHT22;21057;51.024;7.540;2023-04-24T07:32:42;9.40;99.90
15455;DHT22;21057;51.024;7.540;2023-04-24T07:35:14;9.40;99.90
15455;DHT22;21057;51.024;7.540;2023-04-24T07:37:40;9.30;99.90
15455;DHT22;21057;51.024;7.540;2023-04-24T07:40:11;9.30;99.90
15455;DHT22;21057;51.024;7.540;2023-04-24T07:42:45;9.30;99.90
15455;DHT22;21057;51.024;7.540;2023-04-24T07:45:29;9.50;99.90
15455;DHT22;21057;51.024;7.540;2023-04-24T07:47:58;9.50;99.90
15455;DHT22;21057;51.024;7.540;2023-04-24T07:50:25;9.50;99.90
15455;DHT22;21057;51.024;7.540;2023-04-24T07:52:53;9.60;99.90
15455;DHT22;21057;51.024;7.540;2023-04-24T07:55:32;9.60;99.90
15455;DHT22;21057;51.024;7.540;2023-04-24T07:58:15;9.50;99.90
15455;DHT22;21057;51.024;7.540;2023-04-24T08:00:46;9.60;99.90
15455;DHT22;21057;51.024;7.540;2023-04-24T08:03:23;9.40;99.90
15455;DHT22;21057;51.024;7.540;2023-04-24T08:05:51;9.40;99.90
15455;DHT22;21057;51.024;7.540;2023-04-24T08:08:20;9.30;99.90
15455;DHT22;21057;51.024;7.540;2023-04-24T08:10:47;9.10;99.90
15455;DHT22;21057;51.024;7.540;2023-04-24T08:13:15;9.10;99.90
15455;DHT22;21057;51.024;7.540;2023-04-24T08:15:42;9.10;99.90
15455;DHT22;21057;51.024;7.540;2023-04-24T08:18:10;9.00;99.90
15455;DHT22;21057;51.024;7.540;2023-04-24T08:20:39;8.90;99.90
15455;DHT22;21057;51.024;7.540;2023-04-24T08:23:05;9.10;99.90
15455;DHT22;21057;51.024;7.540;2023-04-24T08:25:32;9.00;99.90
15455;DHT22;21057;51.024;7.540;2023-04-24T08:28:11;8.60;99.90
15455;DHT22;21057;51.024;7.540;2023-04-24T08:30:37;8.00;99.90
15455;DHT22;21057;51.024;7.540;2023-04-24T08:33:04;7.90;99.90
15455;DHT22;21057;51.024;7.540;2023-04-24T08:35:34;7.60;99.90
15455;DHT22;21057;51.024;7.540;2023-04-24T08:38:01;7.60;99.90
15455;DHT22;21057;51.024;7.540;2023-04-24T08:40:28;7.60;99.90
15455;DHT22;21057;51.024;7.540;2023-04-24T08:42:56;7.50;99.90
15455;DHT22;21057;51.024;7.540;2023-04-24T08:45:23;7.40;99.90
15455;DHT22;21057;51.024;7.540;2023-04-24T08:47:57;7.40;99.90
15455;DHT22;21057;51.024;7.540;2023-04-24T08:50:25;7.30;99.90
15455;DHT22;21057;51.024;7.540;2023-04-24T08:52:57;7.10;99.90
15455;DHT22;21057;51.024;7.540;2023-04-24T08:55:24;7.30;99.90
15455;DHT22;21057;51.024;7.540;2023-04-24T08:57:53;7.60;99.90
15455;DHT22;21057;51.024;7.540;2023-04-24T09:00:21;7.60;99.90
15455;DHT22;21057;51.024;7.540;2023-04-24T09:02:49;7.50;99.90
15455;DHT22;21057;51.024;7.540;2023-04-24T09:05:17;7.50;99.90
15455;DHT22;21057;51.024;7.540;2023-04-24T09:07:46;7.40;99.90
15455;DHT22;21057;51.024;7.540;2023-04-24T09:10:16;7.60;99.90
15455;DHT22;21057;51.024;7.540;2023-04-24T09:12:44;7.80;99.90
15455;DHT22;21057;51.024;7.540;2023-04-24T09:15:11;7.70;99.90
15455;DHT22;21057;51.024;7.540;2023-04-24T09:17:38;7.70;99.90
15455;DHT22;21057;51.024;7.540;2023-04-24T09:20:07;7.60;99.90
15455;DHT22;21057;51.024;7.540;2023-04-24T09:22:36;7.70;99.90
15455;DHT22;21057;51.024;7.540;2023-04-24T09:25:06;7.50;99.90
15455;DHT22;21057;51.024;7.540;2023-04-24T09:27:35;7.50;99.90
15455;DHT22;21057;51.024;7.540;2023-04-24T09:30:03;7.30;99.90
15455;DHT22;21057;51.024;7.540;2023-04-24T09:32:32;7.40;99.90
15455;DHT22;21057;51.024;7.540;2023-04-24T09:35:10;7.40;99.90
15455;DHT22;21057;51.024;7.540;2023-04-24T09:37:43;7.50;99.90
15455;DHT22;21057;51.024;7.540;2023-04-24T09:40:12;7.50;99.90
15455;DHT22;21057;51.024;7.540;2023-04-24T09:42:43;7.50;99.90
15455;DHT22;21057;51.024;7.540;2023-04-24T09:45:11;7.40;99.90
15455;DHT22;21057;51.024;7.540;2023-04-24T09:47:51;7.40;99.90
15455;DHT22;21057;51.024;7.540;2023-04-24T09:50:20;7.50;99.90
15455;DHT22;21057;51.024;7.540;2023-04-24T09:52:57;7.50;99.90
15455;DHT22;21057;51.024;7.540;2023-04-24T09:55:24;7.50;99.90
15455;DHT22;21057;51.024;7.540;2023-04-24T09:57:56;7.70;99.90
15455;DHT22;21057;51.024;7.540;2023-04-24T10:00:24;7.60;99.90
15455;DHT22;21057;51.024;7.540;2023-04-24T10:03:00;7.80;99.90
15455;DHT22;21057;51.024;7.540;2023-04-24T10:05:36;8.00;99.90
15455;DHT22;21057;51.024;7.540;2023-04-24T10:08:05;8.00;99.90
15455;DHT22;21057;51.024;7.540;2023-04-24T10:10:38;8.10;99.90
15455;DHT22;21057;51.024;7.540;2023-04-24T10:13:08;8.10;99.90
15455;DHT22;21057;51.024;7.540;2023-04-24T10:15:43;7.90;99.90
15455;DHT22;21057;51.024;7.540;2023-04-24T10:18:17;7.90;99.90
15455;DHT22;21057;51.024;7.540;2023-04-24T10:20:46;7.60;99.90
15455;DHT22;21057;51.024;7.540;2023-04-24T10:23:15;7.60;99.90
15455;DHT22;21057;51.024;7.540;2023-04-24T10:25:45;7.70;99.90
15455;DHT22;21057;51.024;7.540;2023-04-24T10:28:26;7.60;99.90
15455;DHT22;21057;51.024;7.540;2023-04-24T10:30:54;7.40;99.90
15455;DHT22;21057;51.024;7.540;2023-04-24T10:33:22;7.50;99.90
15455;DHT22;21057;51.024;7.540;2023-04-24T10:35:51;7.50;99.90
15455;DHT22;21057;51.024;7.540;2023-04-24T10:38:22;7.70;99.90
15455;DHT22;21057;51.024;7.540;2023-04-24T10:41:12;8.20;99.90
15455;DHT22;21057;51.024;7.540;2023-04-24T10:43:46;8.30;99.90
15455;DHT22;21057;51.024;7.540;2023-04-24T10:46:19;8.60;99.90
15455;DHT22;21057;51.024;7.540;2023-04-24T10:48:53;8.50;99.90
15455;DHT22;21057;51.024;7.540;2023-04-24T10:51:44;8.50;99.90
15455;DHT22;21057;51.024;7.540;2023-04-24T10:54:24;8.60;99.90
15455;DHT22;21057;51.024;7.540;2023-04-24T10:56:51;8.60;99.90
15455;DHT22;21057;51.024;7.540;2023-04-24T10:59:27;8.40;99.90
15455;DHT22;21057;51.024;7.540;2023-04-24T11:02:07;8.30;99.90
15455;DHT22;21057;51.024;7.540;2023-04-24T11:04:34;8.50;99.90
15455;DHT22;21057;51.024;7.540;2023-04-24T11:07:03;8.60;99.90
15455;DHT22;21057;51.024;7.540;2023-04-24T11:09:36;8.70;99.90
15455;DHT22;21057;51.024;7.540;2023-04-24T11:12:09;8.60;99.90
15455;DHT22;21057;51.024;7.540;2023-04-24T11:18:00;9.30;99.90
15455;DHT22;21057;51.024;7.540;2023-04-24T11:20:28;9.40;99.90
15455;DHT22;21057;51.024;7.540;2023-04-24T11:22:55;9.60;99.90
15455;DHT22;21057;51.024;7.540;2023-04-24T11:25:25;9.50;99.90
15455;DHT22;21057;51.024;7.540;2023-04-24T11:28:04;9.40;99.90
15455;DHT22;21057;51.024;7.540;2023-04-24T11:30:32;9.50;99.90
15455;DHT22;21057;51.024;7.540;2023-04-24T11:33:05;9.50;99.90
15455;DHT22;21057;51.024;7.540;2023-04-24T11:35:39;9.60;99.90
15455;DHT22;21057;51.024;7.540;2023-04-24T11:38:14;9.20;99.90
15455;DHT22;21057;51.024;7.540;2023-04-24T11:40:42;9.20;99.90
15455;DHT22;21057;51.024;7.540;2023-04-24T11:43:10;9.10;99.90
15455;DHT22;21057;51.024;7.540;2023-04-24T11:45:48;9.40;99.90
15455;DHT22;21057;51.024;7.540;2023-04-24T11:48:20;9.50;99.90
15455;DHT22;21057;51.024;7.540;2023-04-24T11:50:48;9.50;99.90
15455;DHT22;21057;51.024;7.540;2023-04-24T11:53:18;9.60;99.90
15455;DHT22;21057;51.024;7.540;2023-04-24T11:55:48;9.60;99.90
15455;DHT22;21057;51.024;7.540;2023-04-24T11:58:20;9.60;99.90
15455;DHT22;21057;51.024;7.540;2023-04-24T12:00:58;9.80;99.90
15455;DHT22;21057;51.024;7.540;2023-04-24T12:03:47;10.00;99.90
15455;DHT22;21057;51.024;7.540;2023-04-24T12:06:19;10.20;99.90
15455;DHT22;21057;51.024;7.540;2023-04-24T12:08:48;10.40;99.90
15455;DHT22;21057;51.024;7.540;2023-04-24T12:11:20;10.60;99.90
15455;DHT22;21057;51.024;7.540;2023-04-24T12:13:47;10.50;99.90
15455;DHT22;21057;51.024;7.540;2023-04-24T12:16:18;10.90;99.90
15455;DHT22;21057;51.024;7.540;2023-04-24T12:19:27;10.90;99.90
15455;DHT22;21057;51.024;7.540;2023-04-24T12:21:59;10.80;99.90
15455;DHT22;21057;51.024;7.540;2023-04-24T12:24:56;10.80;99.90
15455;DHT22;21057;51.024;7.540;2023-04-24T12:27:23;10.80;99.90
15455;DHT22;21057;51.024;7.540;2023-04-24T12:29:56;11.10;99.90
15455;DHT22;21057;51.024;7.540;2023-04-24T12:32:24;11.30;99.90
15455;DHT22;21057;51.024;7.540;2023-04-24T12:34:53;11.70;99.90
15455;DHT22;21057;51.024;7.540;2023-04-24T12:37:23;11.50;99.90
15455;DHT22;21057;51.024;7.540;2023-04-24T12:40:06;11.40;99.90
15455;DHT22;21057;51.024;7.540;2023-04-24T12:42:33;11.30;99.90
15455;DHT22;21057;51.024;7.540;2023-04-24T12:45:02;11.20;99.90
15455;DHT22;21057;51.024;7.540;2023-04-24T12:47:32;11.00;99.90
15455;DHT22;21057;51.024;7.540;2023-04-24T12:50:01;11.30;99.90
15455;DHT22;21057;51.024;7.540;2023-04-24T12:52:29;11.30;99.90
15455;DHT22;21057;51.024;7.540;2023-04-24T12:55:00;11.20;99.90
15455;DHT22;21057;51.024;7.540;2023-04-24T12:57:28;10.70;99.90
15455;DHT22;21057;51.024;7.540;2023-04-24T12:59:58;10.40;99.90
15455;DHT22;21057;51.024;7.540;2023-04-24T13:02:32;10.10;99.90
15455;DHT22;21057;51.024;7.540;2023-04-24T13:05:08;10.10;99.90
15455;DHT22;21057;51.024;7.540;2023-04-24T13:07:37;10.00;99.90
15455;DHT22;21057;51.024;7.540;2023-04-24T13:10:05;9.90;99.90
15455;DHT22;21057;51.024;7.540;2023-04-24T13:12:35;10.10;99.90
15455;DHT22;21057;51.024;7.540;2023-04-24T13:15:03;10.20;99.90
15455;DHT22;21057;51.024;7.540;2023-04-24T13:17:32;10.40;99.90
15455;DHT22;21057;51.024;7.540;2023-04-24T13:20:00;10.60;99.90
15455;DHT22;21057;51.024;7.540;2023-04-24T13:22:29;10.50;99.90
15455;DHT22;21057;51.024;7.540;2023-04-24T13:24:58;10.80;99.90
15455;DHT22;21057;51.024;7.540;2023-04-24T13:27:26;11.20;99.90
15455;DHT22;21057;51.024;7.540;2023-04-24T13:29:54;11.40;99.90
15455;DHT22;21057;51.024;7.540;2023-04-24T13:32:22;11.70;99.90
15455;DHT22;21057;51.024;7.540;2023-04-24T13:34:50;11.50;99.90
15455;DHT22;21057;51.024;7.540;2023-04-24T13:37:18;11.60;99.90
15455;DHT22;21057;51.024;7.540;2023-04-24T13:39:55;11.80;99.90
15455;DHT22;21057;51.024;7.540;2023-04-24T13:42:23;11.50;99.90
15455;DHT22;21057;51.024;7.540;2023-04-24T13:44:50;11.10;99.90
15455;DHT22;21057;51.024;7.540;2023-04-24T13:47:17;11.60;99.90
15455;DHT22;21057;51.024;7.540;2023-04-24T13:49:50;11.90;99.90
15455;DHT22;21057;51.024;7.540;2023-04-24T13:52:25;12.00;99.90
15455;DHT22;21057;51.024;7.540;2023-04-24T13:54:58;12.10;99.90
15455;DHT22;21057;51.024;7.540;2023-04-24T13:57:31;12.30;99.90
15455;DHT22;21057;51.024;7.540;2023-04-24T14:00:06;12.20;99.90
15455;DHT22;21057;51.024;7.540;2023-04-24T14:02:41;11.60;99.90
15455;DHT22;21057;51.024;7.540;2023-04-24T14:05:12;11.30;99.90
15455;DHT22;21057;51.024;7.540;2023-04-24T14:07:40;11.70;99.90
15455;DHT22;21057;51.024;7.540;2023-04-24T14:10:15;11.70;99.90
15455;DHT22;21057;51.024;7.540;2023-04-24T14:13:00;11.80;99.90
15455;DHT22;21057;51.024;7.540;2023-04-24T14:15:32;11.70;99.90
15455;DHT22;21057;51.024;7.540;2023-04-24T14:17:59;11.90;99.90
15455;DHT22;21057;51.024;7.540;2023-04-24T14:20:37;12.30;99.90
15455;DHT22;21057;51.024;7.540;2023-04-24T14:23:04;12.40;99.90
15455;DHT22;21057;51.024;7.540;2023-04-24T14:25:32;12.60;99.90
15455;DHT22;21057;51.024;7.540;2023-04-24T14:28:00;12.30;99.90
15455;DHT22;21057;51.024;7.540;2023-04-24T14:30:30;12.00;99.90
15455;DHT22;21057;51.024;7.540;2023-04-24T14:32:59;11.60;99.90
15455;DHT22;21057;51.024;7.540;2023-04-24T14:35:26;11.20;99.90
15455;DHT22;21057;51.024;7.540;2023-04-24T14:37:54;11.00;99.90
15455;DHT22;21057;51.024;7.540;2023-04-24T14:40:21;10.70;99.90
15455;DHT22;21057;51.024;7.540;2023-04-24T14:43:03;10.90;99.90
15455;DHT22;21057;51.024;7.540;2023-04-24T14:45:30;10.90;99.90
15455;DHT22;21057;51.024;7.540;2023-04-24T14:47:59;11.00;99.90
15455;DHT22;21057;51.024;7.540;2023-04-24T14:50:26;10.80;99.90
15455;DHT22;21057;51.024;7.540;2023-04-24T14:52:55;10.80;99.90
15455;DHT22;21057;51.024;7.540;2023-04-24T14:55:29;10.90;99.90
15455;DHT22;21057;51.024;7.540;2023-04-24T14:57:58;11.20;99.90
15455;DHT22;21057;51.024;7.540;2023-04-24T15:00:26;11.20;99.90
15455;DHT22;21057;51.024;7.540;2023-04-24T15:02:54;11.60;99.90
15455;DHT22;21057;51.024;7.540;2023-04-24T15:05:22;11.90;99.90
15455;DHT22;21057;51.024;7.540;2023-04-24T15:07:51;12.10;99.90
15455;DHT22;21057;51.024;7.540;2023-04-24T15:10:26;12.00;99.90
15455;DHT22;21057;51.024;7.540;2023-04-24T15:12:54;11.90;99.90
15455;DHT22;21057;51.024;7.540;2023-04-24T15:15:31;11.40;99.90
15455;DHT22;21057;51.024;7.540;2023-04-24T15:17:58;11.60;99.90
15455;DHT22;21057;51.024;7.540;2023-04-24T15:20:30;11.40;99.90
15455;DHT22;21057;51.024;7.540;2023-04-24T15:23:14;11.40;99.90
15455;DHT22;21057;51.024;7.540;2023-04-24T15:25:40;11.20;99.90
15455;DHT22;21057;51.024;7.540;2023-04-24T15:28:09;11.40;99.90
15455;DHT22;21057;51.024;7.540;2023-04-24T15:30:47;11.60;99.90
15455;DHT22;21057;51.024;7.540;2023-04-24T15:33:15;11.40;99.90
15455;DHT22;21057;51.024;7.540;2023-04-24T15:35:42;11.40;99.90
15455;DHT22;21057;51.024;7.540;2023-04-24T15:38:09;11.30;99.90
15455;DHT22;21057;51.024;7.540;2023-04-24T15:40:37;11.20;99.90
15455;DHT22;21057;51.024;7.540;2023-04-24T15:43:04;11.00;99.90
15455;DHT22;21057;51.024;7.540;2023-04-24T15:45:30;11.20;99.90
15455;DHT22;21057;51.024;7.540;2023-04-24T15:48:00;11.60;99.90
15455;DHT22;21057;51.024;7.540;2023-04-24T15:50:35;11.30;99.90
15455;DHT22;21057;51.024;7.540;2023-04-24T15:53:03;11.50;99.90
15455;DHT22;21057;51.024;7.540;2023-04-24T15:55:30;11.60;99.90